Tiempo atmosférico en la estación meteorológica de Olivenza, Badajoz (93 m.)



Fecha
DESCASC
Temp. máxima en grados centígrados (hora)
DESCASC
Temp. mínima en grados centígrados (hora)
DESCASC
Temp. media en grados centígrados
DESCASC
Racha de viento máxima en m/sg (hora)
DESCASC
Velocidad máxima media en intervalos de 10 minutos(hora)
DESCASC
Precipitaciones diarias en mm
DESCASC
Precipitaciones de 00:00 a 06:00 en mm
DESCASC
Precipitaciones de 06:00 a 12:00 en mm
DESCASC
Precipitaciones de 12:00 a 18:00 en mm
DESCASC
Precipitaciones de 18:00 a 24:00 en mm
DESCASC
23-06-2019 31.3 (16:20) 14.4 (07:20) 22.8 8.33 (15:00) 5.28 (15:10) 0 0 0 0 0
22-06-2019 33 (18:20) 13.2 (07:20) 23.1 11.11 (19:20) 6.67 (16:10) 0 0 0 0 0
21-06-2019 31.2 (18:40) 12.3 (07:00) 21.8 10 (00:20) 6.11 (00:20) 0 0 0 0 0
20-06-2019 27.4 (16:20) 15.2 (00:00) 21.3 10.28 (15:40) 6.11 (23:59) 0 0 0 0 0
19-06-2019 26.7 (20:00) 16.3 (00:00) 21.5 10 (15:50) 6.11 (16:00) 0 0 0 0 0
18-06-2019 26 (17:10) 12.3 (00:00) 19.2 14.17 (17:20) 10 (17:20) 0 0 0 0 0
17-06-2019 31.2 (17:00) 12.9 (00:00) 22.1 12.78 (16:50) 7.5 (19:40) 0 0 0 0 0
16-06-2019 31 (18:50) 11.9 (00:00) 21.4 9.44 (18:40) 6.11 (18:10) 0 0 0 0 0
15-06-2019 27.4 (18:40) 10.3 (00:00) 18.8 7.78 (16:40) 3.61 (19:30) 0 0 0 0 0
14-06-2019 22.2 (18:20) 9.9 (00:00) 16.1 10 (13:00) 6.11 (13:10) 0 0 0 0 0
13-06-2019 27.8 (17:40) 8.6 (00:00) 18.2 10.56 (22:40) 5.83 (22:50) 0 0 0 0 0
12-06-2019 29.6 (18:10) 11.2 (00:00) 20.4 9.72 (17:30) 5.83 (21:40) 0 0 0 0 0
11-06-2019 26.6 (16:50) 11.1 (00:00) 18.9 12.78 (16:30) 8.89 (16:30) 0 0 0 0 0
10-06-2019 28.4 (17:00) 11 (00:00) 19.7 10 (20:00) 6.11 (20:00) 0 0 0 0 0
09-06-2019 27.6 (17:50) 9.4 (00:00) 18.5 10.83 (17:00) 6.67 (18:00) 0 0 0 0 0
08-06-2019 29.7 (18:20) 10 (00:00) 19.9 10.56 (21:20) 6.39 (22:00) 0 0 0 0 0
07-06-2019 23.9 (18:10) 10.1 (00:00) 17 9.72 (13:40) 5.28 (00:10) 0.4 0.4 0 0 0
06-06-2019 23.8 (18:00) 8.9 (00:00) 16.3 14.17 (19:20) 9.72 (19:50) 0.8 0 0 0 0.8
05-06-2019 23.3 (17:10) 10.6 (00:00) 16.9 11.67 (13:50) 5.83 (14:00) 0 0 0 0 0
04-06-2019 26.6 (16:40) 14.4 (00:00) 20.5 13.61 (18:00) 8.61 (18:00) 0 0 0 0 0
03-06-2019 34.2 (16:20) 16.8 (00:00) 25.5 11.67 (18:20) 7.5 (18:20) 0 0 0 0 0
02-06-2019 37.2 (17:50) 20.5 (00:00) 28.9 11.11 (07:20) 6.67 (07:40) 0 0 0 0 0
01-06-2019 36.6 (17:30) 17.9 (00:00) 27.2 10.83 (03:30) 7.22 (02:40) 0 0 0 0 0
31-05-2019 35.6 (18:10) 17 (00:00) 26.3 10.56 (15:10) 6.39 (15:10) 0 0 0 0 0
30-05-2019 34.2 (17:00) 14.7 (00:00) 24.5 13.61 (13:10) 7.78 (11:20) 0 0 0 0 0
29-05-2019 32.3 (19:10) 14.7 (00:00) 23.5 12.22 (12:50) 9.44 (10:40) 0 0 0 0 0
28-05-2019 33.8 (16:40) 13.5 (00:00) 23.6 11.39 (17:10) 7.5 (16:50) 0 0 0 0 0
27-05-2019 33.9 (15:50) 15.4 (00:00) 24.7 10.83 (18:40) 6.39 (19:20) 0 0 0 0 0
26-05-2019 32.6 (18:20) 13.8 (00:00) 23.2 12.5 (18:50) 8.33 (17:30) 0 0 0 0 0

Gráficas

Temp. máximas Temp. mínimas Temp. medias Precipitaciones Rachas de viento máximas Velocidades máximas media en intervalos de 10 minutos

Datos horarios

Fecha y hora oficial Temperatura (ºC) Velocidad del viento (km/h) Dirección del viento Racha (km/h) Dirección de racha Precipitación (mm) Presión (hPa) Tendencia (hPa) Humedad (%)
2019-06-24 23:00:00 20 8 Norte 14 Norte 0 -- -- 54
2019-06-24 22:00:00 21 11 Norte 20 Norte 0 -- -- 52
2019-06-24 21:00:00 21.6 17 Norte 27 Noroeste 0 -- -- 49
2019-06-24 20:00:00 23.9 18 Norte 27 Norte 0 -- -- 43
2019-06-24 19:00:00 26.7 12 Noroeste 31 Noroeste 0 -- -- 41
2019-06-24 18:00:00 27.7 20 Noroeste 33 Noroeste 0 -- -- 38
2019-06-24 17:00:00 27.8 17 Noroeste 32 Oeste 0 -- -- 46
2019-06-24 16:00:00 25.1 19 Noroeste 32 Noroeste 0 -- -- 64
2019-06-24 15:00:00 27.6 17 Oeste 28 Oeste 0 -- -- 53
2019-06-24 14:00:00 26.9 17 Sudoeste 30 Sudoeste 0 -- -- 50
2019-06-24 13:00:00 27 17 Sudoeste 27 Sudoeste 0 -- -- 53
2019-06-24 12:00:00 25.7 11 Sudoeste 21 Oeste 0 -- -- 60
2019-06-24 11:00:00 23.9 9 Sudoeste 16 Sudoeste 0 -- -- 70
2019-06-24 10:00:00 21.1 9 Sudoeste 15 Oeste 0 -- -- 81
2019-06-24 09:00:00 20.1 10 Sudoeste 15 Sudoeste 0 -- -- 85
2019-06-24 08:00:00 19.4 8 Sur 12 Sur 0 -- -- 88
2019-06-24 07:00:00 19 8 Sudoeste 11 Sudoeste 0 -- -- 88
2019-06-24 06:00:00 19.5 5 Sudoeste 8 Sudoeste 0 -- -- 85
2019-06-24 05:00:00 19.9 3 Oeste 9 Oeste 0 -- -- 82
2019-06-24 04:00:00 20.4 5 Oeste 12 Oeste 0 -- -- 81
2019-06-24 03:00:00 20.8 7 Oeste 12 Oeste 0 -- -- 78
2019-06-24 02:00:00 21.4 8 Oeste 15 Oeste 0 -- -- 75
2019-06-24 01:00:00 21.9 10 Noroeste 23 Oeste 0 -- -- 73
2019-06-24 00:00:00 23.3 13 Noroeste 23 Noroeste 0 -- -- 68
2019-06-23 23:00:00 24.4 10 Noroeste 21 Noroeste 0 -- -- 57
2019-06-23 22:00:00 25 10 Noroeste 30 Noroeste 0 -- -- 57
2019-06-23 21:00:00 26.4 16 Noroeste 27 Noroeste 0 -- -- 54
2019-06-23 20:00:00 27 17 Noroeste 29 Noroeste 0 -- -- 50
2019-06-23 19:00:00 29.4 12 Oeste 24 Sur 0 -- -- 36
2019-06-23 18:00:00 30.2 12 Sudoeste 24 Sudoeste 0 -- -- 24
2019-06-23 17:00:00 30.8 14 Sudoeste 26 Sudoeste 0 -- -- 21
2019-06-23 16:00:00 30.7 15 Sudoeste 28 Sudoeste 0 -- -- 16
2019-06-23 15:00:00 29.4 15 Sudoeste 30 Sudoeste 0 -- -- 21
2019-06-23 14:00:00 29.3 15 Sudoeste 27 Sudoeste 0 -- -- 21
2019-06-23 13:00:00 27.5 14 Sudoeste 26 Sudoeste 0 -- -- 27
2019-06-23 12:00:00 25.4 9 Sudoeste 17 Oeste 0 -- -- 35
2019-06-23 11:00:00 23.1 5 Oeste 12 Sudoeste 0 -- -- 41
2019-06-23 10:00:00 19.5 9 Sudoeste 14 Sudoeste 0 -- -- 53
2019-06-23 09:00:00 16.4 9 Oeste 13 Noroeste 0 -- -- 62
2019-06-23 08:00:00 15.2 5 Oeste 9 Sudoeste 0 -- -- 61
2019-06-23 07:00:00 14.7 5 Sur 12 Sudeste 0 -- -- 59
2019-06-23 06:00:00 15.3 9 Sudeste 11 Sudeste 0 -- -- 56
2019-06-23 05:00:00 16.7 6 Sudoeste 17 Sudoeste 0 -- -- 54
2019-06-23 04:00:00 17.3 4 Sudoeste 12 Sur 0 -- -- 50
2019-06-23 03:00:00 18.2 7 Sur 11 Sudoeste 0 -- -- 43
2019-06-23 02:00:00 19.3 4 Sudeste 21 Oeste 0 -- -- 37
2019-06-23 01:00:00 21.3 15 Sudoeste 24 Sudoeste 0 -- -- 31
2019-06-23 00:00:00 22.8 15 Sudoeste 23 Sudoeste 0 -- -- 25
2019-06-22 23:00:00 24 10 Oeste 23 Noroeste 0 -- -- 31
2019-06-22 22:00:00 26.2 12 Noroeste 33 Noroeste 0 -- -- 27
2019-06-22 21:00:00 30.3 15 Oeste 28 Oeste 0 -- -- 15
2019-06-22 20:00:00 31.7 19 Oeste 40 Oeste 0 -- -- 14
2019-06-22 19:00:00 32.8 17 Oeste 30 Sudoeste 0 -- -- 14
2019-06-22 18:00:00 32.9 19 Sudoeste 34 Sudoeste 0 -- -- 16
2019-06-22 17:00:00 32.3 19 Sudoeste 37 Sur 0 -- -- 16
2019-06-22 16:00:00 32.3 23 Sudoeste 39 Oeste 0 -- -- 20
2019-06-22 15:00:00 31.5 20 Sudoeste 36 Sudoeste 0 -- -- 20
2019-06-22 14:00:00 30.8 16 Sudoeste 28 Sudoeste 0 -- -- 22
2019-06-22 13:00:00 29.4 9 Sudoeste 20 Oeste 0 -- -- 23
2019-06-22 12:00:00 27.3 10 Sudoeste 18 Sudoeste 0 -- -- 25
2019-06-22 11:00:00 23.5 10 Sudoeste 18 Oeste 0 -- -- 41
2019-06-22 10:00:00 20.3 11 Oeste 17 Oeste 0 -- -- 53
2019-06-22 09:00:00 16.9 8 Oeste 13 Oeste 0 -- -- 66
2019-06-22 08:00:00 14.3 3 Sudoeste 15 Oeste 0 -- -- 76
2019-06-22 07:00:00 13.3 10 Sudoeste 17 Oeste 0 -- -- 80
2019-06-22 06:00:00 14 14 Oeste 23 Oeste 0 -- -- 75
2019-06-22 05:00:00 14.9 12 Oeste 19 Oeste 0 -- -- 68
2019-06-22 04:00:00 15.6 12 Oeste 20 Oeste 0 -- -- 64
2019-06-22 03:00:00 16.8 12 Oeste 18 Oeste 0 -- -- 61
2019-06-22 02:00:00 17.7 6 Sudoeste 12 Oeste 0 -- -- 58
2019-06-22 01:00:00 18.8 8 Oeste 17 Oeste 0 -- -- 54
2019-06-22 00:00:00 20.5 11 Oeste 27 Oeste 0 -- -- 50
2019-06-21 23:00:00 22.6 13 Noroeste 28 Noroeste 0 -- -- 44
2019-06-21 22:00:00 24.9 12 Noroeste 31 Noroeste 0 -- -- 38
2019-06-21 21:00:00 28.2 17 Noroeste 28 Noroeste 0 -- -- 29
2019-06-21 20:00:00 29.7 17 Oeste 27 Oeste 0 -- -- 26
2019-06-21 19:00:00 30.5 8 Oeste 25 Oeste 0 -- -- 26
2019-06-21 18:00:00 30.5 12 Oeste 30 Noroeste 0 -- -- 26
2019-06-21 17:00:00 30.7 14 Noroeste 32 Noroeste 0 -- -- 26
2019-06-21 16:00:00 30 15 Oeste 31 Oeste 0 -- -- 28
2019-06-21 15:00:00 29.4 11 Noroeste 24 Noroeste 0 -- -- 30
2019-06-21 14:00:00 27.4 8 Noroeste 23 Oeste 0 -- -- 38
2019-06-21 13:00:00 24.8 13 Noroeste 22 Oeste 0 -- -- 45
2019-06-21 12:00:00 22.5 10 Sudoeste 19 Sudoeste 0 -- -- 52
2019-06-21 11:00:00 20.5 10 Oeste 20 Oeste 0 -- -- 58
2019-06-21 10:00:00 17.8 12 Oeste 21 Oeste 0 -- -- 69
2019-06-21 09:00:00 15.4 13 Oeste 23 Oeste 0 -- -- 78
2019-06-21 08:00:00 13.2 12 Oeste 19 Sudoeste 0 -- -- 87
2019-06-21 07:00:00 12.3 9 Oeste 17 Oeste 0 -- -- 90
2019-06-21 06:00:00 12.6 8 Sudoeste 17 Oeste 0 -- -- 89
2019-06-21 05:00:00 12.8 6 Oeste 18 Oeste 0 -- -- 89
2019-06-21 04:00:00 13.3 11 Oeste 22 Oeste 0 -- -- 86
2019-06-21 03:00:00 14.1 10 Oeste 27 Noroeste 0 -- -- 82
2019-06-21 02:00:00 15 17 Oeste 29 Noroeste 0 -- -- 77
2019-06-21 01:00:00 16.3 17 Noroeste 36 Noroeste 0 -- -- 69
2019-06-21 00:00:00 18.1 22 Noroeste 34 Noroeste 0 -- -- 62
2019-06-20 23:00:00 19.5 15 Noroeste 27 Noroeste 0 -- -- 56
2019-06-20 22:00:00 20.7 15 Noroeste 32 Oeste 0 -- -- 52
2019-06-20 21:00:00 23.4 18 Noroeste 33 Oeste 0 -- -- 44
2019-06-20 20:00:00 25.2 15 Oeste 30 Oeste 0 -- -- 41
2019-06-20 19:00:00 26 18 Oeste 31 Oeste 0 -- -- 39
2019-06-20 18:00:00 26.8 17 Noroeste 30 Oeste 0 -- -- 37
2019-06-20 17:00:00 27.2 15 Oeste 33 Oeste 0 -- -- 36
2019-06-20 16:00:00 26.5 18 Oeste 37 Oeste 0 -- -- 38
2019-06-20 15:00:00 25.6 13 Sudoeste 36 Oeste 0 -- -- 39
2019-06-20 14:00:00 25.3 11 Oeste 30 Sudoeste 0 -- -- 41
2019-06-20 13:00:00 24.3 13 Oeste 30 Oeste 0 -- -- 45
2019-06-20 12:00:00 22.9 16 Sudoeste 28 Oeste 0 -- -- 48
2019-06-20 11:00:00 21.1 11 Oeste 25 Oeste 0 -- -- 55
2019-06-20 10:00:00 18.8 13 Oeste 21 Oeste 0 -- -- 65
2019-06-20 09:00:00 17.2 10 Oeste 15 Sudoeste 0 -- -- 75
2019-06-20 08:00:00 15.2 9 Oeste 14 Sudoeste 0 -- -- 87
2019-06-20 07:00:00 15.7 8 Sudoeste 14 Sudoeste 0 -- -- 86
2019-06-20 06:00:00 15.9 8 Sudoeste 13 Sudoeste 0 -- -- 86
2019-06-20 05:00:00 16.1 -- -- -- -- -- -- -- --
2019-06-20 04:00:00 16.3 10 Sudoeste 15 Sudoeste 0 -- -- 83
2019-06-20 03:00:00 17 9 Sudoeste 17 Sudoeste 0 -- -- 79
2019-06-20 02:00:00 17.5 11 Sudoeste 19 Sudoeste 0 -- -- 75
2019-06-20 01:00:00 18.4 14 Sudoeste 21 Sudoeste 0 -- -- 68
2019-06-20 00:00:00 19.2 10 Sudoeste 17 Oeste 0 -- -- 65
2019-06-19 23:00:00 20.3 10 Oeste 19 Oeste 0 -- -- 62
2019-06-19 22:00:00 22.2 10 Oeste 23 Oeste 0 -- -- 56
2019-06-19 21:00:00 24.3 14 Oeste 24 Oeste 0 -- -- 52
2019-06-19 20:00:00 26.7 14 Oeste 26 Oeste 0 -- -- 46
2019-06-19 19:00:00 25.4 17 Oeste 27 Oeste 0 -- -- 51
2019-06-19 18:00:00 25.3 17 Sudoeste 28 Sudoeste 0 -- -- 51
2019-06-19 17:00:00 26 12 Oeste 28 Oeste 0 -- -- 48
2019-06-19 16:00:00 23.9 22 Sudoeste 36 Oeste 0 -- -- 57
2019-06-19 15:00:00 23.2 17 Sudoeste 27 Sudoeste 0 -- -- 56
2019-06-19 14:00:00 23.3 13 Sudoeste 21 Sudoeste 0 -- -- 55
2019-06-19 13:00:00 20.2 4 Noroeste 13 Norte 0 -- -- 77
2019-06-19 12:00:00 18.7 8 Norte 19 Oeste 0 -- -- 83
2019-06-19 11:00:00 19.7 9 Sudoeste 23 Sudoeste 0 -- -- 75
2019-06-19 10:00:00 19.1 14 Sudoeste 23 Sur 0 -- -- 80
2019-06-19 09:00:00 17.9 12 Sudoeste 19 Sudoeste 0 -- -- 85
2019-06-19 08:00:00 17.3 12 Sudoeste 21 Sur 0 -- -- 87
2019-06-19 07:00:00 17 14 Sudoeste 21 Sur 0 -- -- 88
2019-06-19 06:00:00 16.9 14 Sudoeste 26 Sudoeste 0 -- -- 88
2019-06-19 05:00:00 16.7 11 Sudoeste 22 Sudoeste 0 -- -- 88
2019-06-19 04:00:00 16.6 14 Sudoeste 27 Sudoeste 0 -- -- 86
2019-06-19 03:00:00 17.3 17 Sudoeste 26 Sudoeste 0 -- -- 80
2019-06-19 02:00:00 18.3 16 Sudoeste 27 Oeste 0 -- -- 75
2019-06-19 01:00:00 19.1 17 Sudoeste 23 Sudoeste 0 -- -- 70
2019-06-19 00:00:00 19.9 12 Oeste 26 Oeste 0 -- -- 65
2019-06-18 23:00:00 21.3 13 Oeste 32 Sudoeste 0 -- -- 53
2019-06-18 22:00:00 22.8 16 Oeste 39 Oeste 0 -- -- 48
2019-06-18 21:00:00 -- 25 Oeste 40 Sudoeste 0 -- -- --
2019-06-18 20:00:00 24.4 27 Sudoeste 46 Sudoeste 0 -- -- 53
2019-06-18 19:00:00 24.8 31 Sudoeste 48 Sudoeste 0 -- -- 53
2019-06-18 18:00:00 24.9 33 Sudoeste 51 Sudoeste 0 -- -- 53
2019-06-18 17:00:00 25.7 32 Sudoeste 50 Sudoeste 0 -- -- 50
2019-06-18 16:00:00 25 32 Sudoeste 46 Sudoeste 0 -- -- 50
2019-06-18 15:00:00 25.4 31 Sudoeste 48 Sudoeste 0 -- -- 48
2019-06-18 14:00:00 24 29 Sudoeste 43 Sudoeste 0 -- -- 55
2019-06-18 13:00:00 22.8 23 Sudoeste 39 Sudoeste 0 -- -- 59
2019-06-18 12:00:00 22.6 23 Sudoeste 39 Sudoeste 0 -- -- 57
2019-06-18 11:00:00 20.8 22 Sudoeste 33 Sudoeste 0 -- -- 63
2019-06-18 10:00:00 19.3 17 Sur 25 Sur 0 -- -- 66
2019-06-18 09:00:00 16.1 16 Sur 25 Sur 0 -- -- 79
2019-06-18 08:00:00 13.8 12 Sudoeste 18 Sudoeste 0 -- -- 83
2019-06-18 07:00:00 12.4 10 Sur 14 Sudoeste 0 -- -- 88
2019-06-18 06:00:00 12.7 8 Sur 15 Sudoeste 0 -- -- 85
2019-06-18 05:00:00 13.6 10 Sudoeste 21 Sudoeste 0 -- -- 81
2019-06-18 04:00:00 14.3 14 Sudoeste 23 Sudoeste 0 -- -- 66
2019-06-18 03:00:00 16.1 16 Sudoeste 23 Sudoeste 0 -- -- 53
2019-06-18 02:00:00 17.6 14 Sudoeste 22 Sudoeste 0 -- -- 48
2019-06-18 01:00:00 18.8 12 Sudoeste 19 Sudoeste 0 -- -- 49
2019-06-18 00:00:00 20.7 13 Sudoeste 22 Sudoeste 0 -- -- 48
2019-06-17 23:00:00 22.8 15 Sudoeste 25 Sudoeste 0 -- -- 43
2019-06-17 22:00:00 24.9 17 Sudoeste 34 Sudoeste 0 -- -- 38
2019-06-17 21:00:00 27.6 24 Sudoeste 37 Oeste 0 -- -- 27
2019-06-17 20:00:00 29.4 24 Sudoeste 43 Sudoeste 0 -- -- 15
2019-06-17 19:00:00 30.2 23 Sudoeste 44 Sudoeste 0 -- -- 19
2019-06-17 18:00:00 31.1 21 Sudoeste 39 Sudoeste 0 -- -- 19
2019-06-17 17:00:00 31.2 19 Sudoeste 46 Oeste 0 -- -- 17
2019-06-17 16:00:00 30.7 19 Sudoeste 31 Sur 0 -- -- 18
2019-06-17 15:00:00 29.7 18 Sudoeste 34 Sur 0 -- -- 20
2019-06-17 14:00:00 28.8 15 Sudoeste 30 Sudoeste 0 -- -- 21
2019-06-17 13:00:00 27.1 14 Sudoeste 27 Sudoeste 0 -- -- 23
2019-06-17 12:00:00 25.7 13 Sudoeste 23 Sudoeste 0 -- -- 32
2019-06-17 11:00:00 23.4 4 Nordeste 10 Sudoeste 0 -- -- 41
2019-06-17 10:00:00 20.3 3 Noroeste 11 Noroeste 0 -- -- 52
2019-06-17 09:00:00 17.2 0 Calma 6 Oeste 0 -- -- 62
2019-06-17 08:00:00 13.8 4 Sudoeste 6 Oeste 0 -- -- 71
2019-06-17 07:00:00 13 3 Sur 9 Sudeste 0 -- -- 74
2019-06-17 06:00:00 13.2 6 Sur 9 Sur 0 -- -- 73
2019-06-17 05:00:00 14.1 4 Sudoeste 9 Oeste 0 -- -- 71
2019-06-17 04:00:00 14.7 6 Oeste 15 Oeste 0 -- -- 68
2019-06-17 03:00:00 15.6 9 Oeste 17 Oeste 0 -- -- 66
2019-06-17 02:00:00 16.9 10 Oeste 22 Oeste 0 -- -- 62
2019-06-17 01:00:00 18.3 12 Oeste 17 Noroeste 0 -- -- 60
2019-06-17 00:00:00 20.1 10 Noroeste 22 Noroeste 0 -- -- 55
2019-06-16 23:00:00 22.7 13 Oeste 24 Oeste 0 -- -- 41
2019-06-16 22:00:00 25.5 11 Oeste 30 Oeste 0 -- -- 26
2019-06-16 21:00:00 28.8 16 Oeste 29 Oeste 0 -- -- 23
2019-06-16 20:00:00 29.8 16 Sudoeste 30 Oeste 0 -- -- 21
2019-06-16 19:00:00 30.5 18 Sudoeste 34 Oeste 0 -- -- 16
2019-06-16 18:00:00 30.8 19 Sudoeste 32 Oeste 0 -- -- 14
2019-06-16 17:00:00 30.8 11 Oeste 26 Oeste 0 -- -- 19
2019-06-16 16:00:00 29.5 10 Sudoeste 28 Sudoeste 0 -- -- 24
2019-06-16 15:00:00 27.8 4 Sudoeste 22 Noroeste 0 -- -- 28
2019-06-16 14:00:00 27.3 4 Sudoeste 17 Este 0 -- -- 29
2019-06-16 13:00:00 26.2 5 Sudeste 14 Nordeste 0 -- -- 32
2019-06-16 12:00:00 24 7 Nordeste 12 Norte 0 -- -- 38
2019-06-16 11:00:00 21 7 Nordeste 12 Nordeste 0 -- -- 46
2019-06-16 10:00:00 19.2 5 Nordeste 8 Nordeste 0 -- -- 52
2019-06-16 09:00:00 16.1 0 Calma 4 Sudoeste 0 -- -- 63
2019-06-16 08:00:00 13 4 Sudoeste 9 Sudoeste 0 -- -- 73
2019-06-16 07:00:00 12.1 6 Sudoeste 8 Sudoeste 0 -- -- 75
2019-06-16 06:00:00 12.6 5 Sudoeste 12 Sudoeste 0 -- -- 72
2019-06-16 05:00:00 13.1 6 Sudoeste 9 Sudoeste 0 -- -- 69
2019-06-16 04:00:00 13.8 4 Sudoeste 7 Sudoeste 0 -- -- 67
2019-06-16 03:00:00 15.1 2 Sudoeste 6 Noroeste 0 -- -- 63
2019-06-16 02:00:00 15.8 3 Oeste 8 Oeste 0 -- -- 61
2019-06-16 01:00:00 17.1 4 Oeste 19 Noroeste 0 -- -- 58
2019-06-16 00:00:00 18.7 13 Noroeste 24 Noroeste 0 -- -- 55
2019-06-15 23:00:00 20.4 8 Noroeste 13 Noroeste 0 -- -- 37
2019-06-15 22:00:00 22.4 8 Noroeste 15 Noroeste 0 -- -- 32
2019-06-15 21:00:00 25.8 10 Noroeste 17 Oeste 0 -- -- 26
2019-06-15 20:00:00 26.6 12 Oeste 22 Noroeste 0 -- -- 25
2019-06-15 19:00:00 27.2 6 Noroeste 19 Sur 0 -- -- 24
2019-06-15 18:00:00 27.1 10 Noroeste 22 Norte 0 -- -- 24
2019-06-15 17:00:00 26.3 8 Norte 28 Oeste 0 -- -- 26
2019-06-15 16:00:00 25.9 9 Oeste 25 Oeste 0 -- -- 27
2019-06-15 15:00:00 25.2 8 Norte 19 Oeste 0 -- -- 31
2019-06-15 14:00:00 23.1 6 Norte 24 Oeste 0 -- -- 36
2019-06-15 13:00:00 22.3 11 Noroeste 19 Norte 0 -- -- 39
2019-06-15 12:00:00 20.6 6 Noroeste 17 Norte 0 -- -- 43
2019-06-15 11:00:00 18.6 7 Noroeste 13 Noroeste 0 -- -- 54
2019-06-15 10:00:00 16.4 4 Noroeste 10 Noroeste 0 -- -- 62
2019-06-15 09:00:00 13.6 6 Oeste 9 Oeste 0 -- -- 76
2019-06-15 08:00:00 10.9 4 Sudoeste 6 Sur 0 -- -- 83
2019-06-15 07:00:00 10.5 4 Sur 5 Sur 0 -- -- 85
2019-06-15 06:00:00 10.7 3 Sudoeste 5 Noroeste 0 -- -- 82
2019-06-15 05:00:00 11.1 6 Oeste 11 Noroeste 0 -- -- 80
2019-06-15 04:00:00 11.6 4 Oeste 10 Noroeste 0 -- -- 76
2019-06-15 03:00:00 12.4 6 Oeste 11 Noroeste 0 -- -- 71
2019-06-15 02:00:00 12.9 6 Noroeste 10 Noroeste 0 -- -- 66
2019-06-15 01:00:00 13.7 6 Oeste 12 Oeste 0 -- -- 61
2019-06-15 00:00:00 14.7 6 Oeste 12 Oeste 0 -- -- 57
2019-06-14 23:00:00 15.6 5 Oeste 12 Oeste 0 -- -- 56
2019-06-14 22:00:00 17.2 9 Oeste 21 Noroeste 0 -- -- 51
2019-06-14 21:00:00 19.5 14 Noroeste 31 Noroeste 0 -- -- 45
2019-06-14 20:00:00 19.6 14 Oeste 30 Oeste 0 -- -- 44
2019-06-14 19:00:00 21 17 Oeste 34 Oeste 0 -- -- 38
2019-06-14 18:00:00 21.8 17 Noroeste 30 Oeste 0 -- -- 35
2019-06-14 17:00:00 21.2 17 Oeste 36 Oeste 0 -- -- 37
2019-06-14 16:00:00 21.3 17 Oeste 35 Oeste 0 -- -- 38
2019-06-14 15:00:00 20.2 20 Oeste 36 Oeste 0 -- -- 40
2019-06-14 14:00:00 19.6 21 Oeste 35 Oeste 0 -- -- 40
2019-06-14 13:00:00 18.9 21 Oeste 36 Noroeste 0 -- -- 43
2019-06-14 12:00:00 18.3 16 Oeste 34 Oeste 0 -- -- 46
2019-06-14 11:00:00 16.9 19 Oeste 32 Oeste 0 -- -- 54
2019-06-14 10:00:00 15 16 Oeste 27 Oeste 0 -- -- 65
2019-06-14 09:00:00 12.4 13 Sudoeste 21 Sudoeste 0 -- -- 78
2019-06-14 08:00:00 10.6 13 Sudoeste 21 Sudoeste 0 -- -- 86
2019-06-14 07:00:00 10 14 Sudoeste 21 Sudoeste 0 -- -- 86
2019-06-14 06:00:00 10.2 11 Sudoeste 19 Oeste 0 -- -- 82
2019-06-14 05:00:00 10.3 10 Oeste 17 Oeste 0 -- -- 80
2019-06-14 04:00:00 11.2 10 Oeste 21 Oeste 0 -- -- 74
2019-06-14 03:00:00 12 9 Oeste 26 Oeste 0 -- -- 72
2019-06-14 02:00:00 12.8 12 Oeste 28 Oeste 0 -- -- 66
2019-06-14 01:00:00 14 14 Oeste 29 Oeste 0 -- -- 60
2019-06-14 00:00:00 15.3 15 Noroeste 30 Noroeste 0 -- -- 54
2019-06-13 23:00:00 17.1 17 Noroeste 38 Noroeste 0 -- -- 47
2019-06-13 22:00:00 19.9 16 Noroeste 33 Noroeste 0 -- -- 40
2019-06-13 21:00:00 23.9 14 Noroeste 31 Oeste 0 -- -- 28
2019-06-13 20:00:00 25.2 14 Noroeste 33 Oeste 0 -- -- 24
2019-06-13 19:00:00 26.3 14 Oeste 35 Oeste 0 -- -- 22
2019-06-13 18:00:00 26.2 16 Oeste 30 Oeste 0 -- -- 23
2019-06-13 17:00:00 26.6 13 Oeste 31 Sudoeste 0 -- -- 25
2019-06-13 16:00:00 25.7 8 Oeste 30 Oeste 0 -- -- 26
2019-06-13 15:00:00 24.8 10 Sudoeste 23 Sudoeste 0 -- -- 31
2019-06-13 14:00:00 22.8 12 Oeste 23 Oeste 0 -- -- 34
2019-06-13 13:00:00 20.4 8 Sudoeste 19 Sudoeste 0 -- -- 40
2019-06-13 12:00:00 18.2 9 Sudoeste 17 Sudoeste 0 -- -- 50
2019-06-13 11:00:00 16.1 6 Sudoeste 22 Sudoeste 0 -- -- 57
2019-06-13 10:00:00 13.4 11 Sudoeste 24 Sudoeste 0 -- -- 70
2019-06-13 09:00:00 11.2 14 Sudoeste 21 Sudoeste 0 -- -- 79
2019-06-13 08:00:00 9.7 10 Sudoeste 17 Sudoeste 0 -- -- 86
2019-06-13 07:00:00 8.6 7 Sur 16 Sudoeste 0 -- -- 86
2019-06-13 06:00:00 9.5 10 Sudoeste 15 Sudoeste 0 -- -- 82
2019-06-13 05:00:00 9.8 11 Oeste 21 Oeste 0 -- -- 80
2019-06-13 04:00:00 10.5 10 Oeste 23 Oeste 0 -- -- 76
2019-06-13 03:00:00 11.2 12 Oeste 20 Oeste 0 -- -- 71
2019-06-13 02:00:00 12.1 13 Oeste 23 Oeste 0 -- -- 64
2019-06-13 01:00:00 13.6 12 Oeste 24 Noroeste 0 -- -- 55
2019-06-13 00:00:00 15.6 12 Noroeste 32 Noroeste 0 -- -- 46
2019-06-12 23:00:00 17.8 16 Noroeste 33 Noroeste 0 -- -- 42
2019-06-12 22:00:00 20.9 20 Noroeste 33 Noroeste 0 -- -- 34
2019-06-12 21:00:00 25.1 17 Noroeste 32 Noroeste 0 -- -- 18
2019-06-12 20:00:00 27.7 15 Noroeste 30 Oeste 0 -- -- 15
2019-06-12 19:00:00 28.6 19 Oeste 35 Oeste 0 -- -- 14
2019-06-12 18:00:00 29.2 15 Oeste 35 Oeste 0 -- -- 13
2019-06-12 17:00:00 29.2 17 Oeste 30 Oeste 0 -- -- 14
2019-06-12 16:00:00 28.8 12 Oeste 23 Noroeste 0 -- -- 18
2019-06-12 15:00:00 28.1 10 Oeste 23 Oeste 0 -- -- 17
2019-06-12 14:00:00 27.2 9 Norte 23 Oeste 0 -- -- 16
2019-06-12 13:00:00 26 10 Noroeste 21 Norte 0 -- -- 19
2019-06-12 12:00:00 24 4 Sudeste 13 Nordeste 0 -- -- 24
2019-06-12 11:00:00 21.2 9 Nordeste 18 Nordeste 0 -- -- 31
2019-06-12 10:00:00 19 11 Nordeste 21 Nordeste 0 -- -- 37
2019-06-12 09:00:00 16.8 8 Nordeste 12 Este 0 -- -- 41
2019-06-12 08:00:00 13.7 8 Este 13 Este 0 -- -- 50
2019-06-12 07:00:00 11.6 9 Nordeste 13 Este 0 -- -- 55
2019-06-12 06:00:00 11.3 14 Nordeste 19 Nordeste 0 -- -- 55
2019-06-12 05:00:00 12.3 17 Nordeste 21 Norte 0 -- -- 52
2019-06-12 04:00:00 14.5 17 Norte 21 Norte 0 -- -- 46
2019-06-12 03:00:00 13.8 7 Norte 18 Norte 0 -- -- 44
2019-06-12 02:00:00 15.5 15 Norte 19 Norte 0 -- -- 40
2019-06-12 01:00:00 16.3 8 Noroeste 12 Oeste 0 -- -- 41
2019-06-12 00:00:00 17.7 8 Nordeste 11 Nordeste 0 -- -- 28
2019-06-11 23:00:00 18.3 9 Nordeste 16 Norte 0 -- -- 28
2019-06-11 22:00:00 21.4 13 Norte 30 Nordeste 0 -- -- 24
2019-06-11 21:00:00 24.1 25 Nordeste 33 Nordeste 0 -- -- 22
2019-06-11 20:00:00 25.4 26 Norte 38 Norte 0 -- -- 21
2019-06-11 19:00:00 26 27 Norte 38 Norte 0 -- -- 19
2019-06-11 18:00:00 26.5 24 Norte 42 Norte 0 -- -- 20
2019-06-11 17:00:00 26.4 29 Nordeste 46 Norte 0 -- -- 17
2019-06-11 16:00:00 25.8 27 Norte 43 Norte 0 -- -- 23
2019-06-11 15:00:00 25.9 20 Norte 44 Norte 0 -- -- 26
2019-06-11 14:00:00 24.9 27 Norte 42 Norte 0 -- -- 30
2019-06-11 13:00:00 23.9 23 Norte 40 Norte 0 -- -- 36
2019-06-11 12:00:00 22.3 22 Norte 37 Norte 0 -- -- 41
2019-06-11 11:00:00 20.5 22 Norte 32 Norte 0 -- -- 45
2019-06-11 10:00:00 17.3 11 Noroeste 22 Noroeste 0 -- -- 55
2019-06-11 09:00:00 14.2 9 Oeste 19 Oeste 0 -- -- 67
2019-06-11 08:00:00 11.9 12 Oeste 18 Sudoeste 0 -- -- 77
2019-06-11 07:00:00 11.1 11 Oeste 20 Oeste 0 -- -- 79
2019-06-11 06:00:00 11.5 10 Oeste 21 Oeste 0 -- -- 77
2019-06-11 05:00:00 11.6 10 Oeste 25 Oeste 0 -- -- 73
2019-06-11 04:00:00 12.3 14 Oeste 29 Oeste 0 -- -- 69
2019-06-11 03:00:00 13 20 Oeste 31 Oeste 0 -- -- 64
2019-06-11 02:00:00 13.6 14 Oeste 23 Oeste 0 -- -- 60
2019-06-11 01:00:00 14.4 11 Oeste 29 Noroeste 0 -- -- 56
2019-06-11 00:00:00 16 16 Oeste 31 Oeste 0 -- -- 49
2019-06-10 23:00:00 17.8 15 Oeste 35 Oeste 0 -- -- 38
2019-06-10 22:00:00 20 17 Noroeste 35 Oeste 0 -- -- 33
2019-06-10 21:00:00 23.6 19 Noroeste 35 Noroeste 0 -- -- 27
2019-06-10 20:00:00 26 22 Noroeste 36 Oeste 0 -- -- 25
2019-06-10 19:00:00 27.6 17 Noroeste 34 Noroeste 0 -- -- 24
2019-06-10 18:00:00 28.1 15 Oeste 33 Oeste 0 -- -- 24
2019-06-10 17:00:00 28.4 15 Oeste 31 Oeste 0 -- -- 24
2019-06-10 16:00:00 27.5 14 Oeste 34 Noroeste 0 -- -- 26
2019-06-10 15:00:00 27.2 14 Noroeste 26 Norte 0 -- -- 27
2019-06-10 14:00:00 25.8 9 Norte 22 Norte 0 -- -- 30
2019-06-10 13:00:00 23.9 7 Oeste 19 Oeste 0 -- -- 37
2019-06-10 12:00:00 21.6 8 Noroeste 18 Oeste 0 -- -- 44
2019-06-10 11:00:00 19.2 7 Noroeste 15 Noroeste 0 -- -- 54
2019-06-10 10:00:00 16.4 8 Oeste 21 Oeste 0 -- -- 65
2019-06-10 09:00:00 13.6 11 Oeste 18 Oeste 0 -- -- 79
2019-06-10 08:00:00 11.7 10 Oeste 15 Oeste 0 -- -- 88
2019-06-10 07:00:00 11 9 Oeste 15 Oeste 0 -- -- 90
2019-06-10 06:00:00 11.4 6 Oeste 18 Oeste 0 -- -- 87
2019-06-10 05:00:00 12.1 8 Oeste 18 Sudoeste 0 -- -- 84
2019-06-10 04:00:00 12.6 9 Oeste 22 Noroeste 0 -- -- 82
2019-06-10 03:00:00 13.9 13 Noroeste 27 Noroeste 0 -- -- 76
2019-06-10 02:00:00 14.8 10 Noroeste 22 Noroeste -- -- -- 70
2019-06-10 01:00:00 16 12 Noroeste 26 Noroeste 0 -- -- 64
2019-06-10 00:00:00 17.3 16 Noroeste 30 Noroeste 0 -- -- 55
2019-06-09 23:00:00 18.9 18 Noroeste 32 Noroeste 0 -- -- 48
2019-06-09 22:00:00 20.4 21 Noroeste 37 Noroeste 0 -- -- 43
2019-06-09 21:00:00 23.2 19 Noroeste 32 Noroeste 0 -- -- 35
2019-06-09 20:00:00 24.3 19 Noroeste 36 Noroeste 0 -- -- 33
2019-06-09 19:00:00 26.2 19 Noroeste 36 Oeste 0 -- -- 31
2019-06-09 18:00:00 26.6 24 Oeste 39 Oeste 0 -- -- 30
2019-06-09 17:00:00 26.9 18 Noroeste 39 Oeste 0 -- -- 28
2019-06-09 16:00:00 27.1 15 Noroeste 31 Norte 0 -- -- 26
2019-06-09 15:00:00 25.7 14 Noroeste 30 Oeste 0 -- -- 25
2019-06-09 14:00:00 24.3 14 Oeste 27 Oeste 0 -- -- 27
2019-06-09 13:00:00 22.5 14 Oeste 29 Oeste 0 -- -- 32
2019-06-09 12:00:00 19.3 12 Oeste 24 Oeste 0 -- -- 44
2019-06-09 11:00:00 17 13 Oeste 24 Oeste 0 -- -- 53
2019-06-09 10:00:00 14.6 14 Oeste 22 Oeste 0 -- -- 63
2019-06-09 09:00:00 12.4 12 Sudoeste 22 Sudoeste 0 -- -- 71
2019-06-09 08:00:00 10.6 14 Sudoeste 22 Sudoeste 0 -- -- 77
2019-06-09 07:00:00 9.9 14 Sudoeste 23 Oeste 0 -- -- 79
2019-06-09 06:00:00 9.7 15 Oeste 19 Sudoeste 0 -- -- 76
2019-06-09 05:00:00 10.2 12 Oeste 18 Oeste 0 -- -- 68
2019-06-09 04:00:00 11.4 8 Oeste 18 Oeste 0 -- -- 62
2019-06-09 03:00:00 12 10 Oeste 17 Oeste 0 -- -- 61
2019-06-09 02:00:00 13.2 11 Oeste 16 Oeste 0 -- -- 57
2019-06-09 01:00:00 14.5 8 Oeste 21 Oeste 0 -- -- 51
2019-06-09 00:00:00 16.3 13 Noroeste 30 Noroeste 0 -- -- 50
2019-06-08 23:00:00 18.4 13 Noroeste 38 Noroeste 0 -- -- 47
2019-06-08 22:00:00 21.3 23 Noroeste 38 Noroeste 0 -- -- 40
2019-06-08 21:00:00 24.7 19 Noroeste 33 Noroeste 0 -- -- 27
2019-06-08 20:00:00 27.7 15 Noroeste 29 Noroeste 0 -- -- 23
2019-06-08 19:00:00 29.3 13 Sudoeste 25 Sudoeste 0 -- -- 19
2019-06-08 18:00:00 29.3 13 Sudoeste 27 Sudoeste 0 -- -- 16
2019-06-08 17:00:00 28.9 8 Sudoeste 24 Sudoeste 0 -- -- 16
2019-06-08 16:00:00 27.6 11 Oeste 35 Oeste 0 -- -- 19
2019-06-08 15:00:00 26.6 7 Sudoeste 22 Sudoeste 0 -- -- 21
2019-06-08 14:00:00 26.1 5 Sudoeste 18 Oeste 0 -- -- 23
2019-06-08 13:00:00 24.6 6 Sudeste 16 Nordeste 0 -- -- 26
2019-06-08 12:00:00 22.3 9 Nordeste 15 Nordeste 0 -- -- 35
2019-06-08 11:00:00 19.3 10 Nordeste 22 Norte 0 -- -- 42
2019-06-08 10:00:00 17.7 15 Nordeste 21 Norte 0 -- -- 47
2019-06-08 09:00:00 15 13 Norte 19 Norte 0 -- -- 55
2019-06-08 08:00:00 11.8 8 Nordeste 12 Norte 0 -- -- 69
2019-06-08 07:00:00 10.1 7 Nordeste 10 Sudeste 0 -- -- 73
2019-06-08 06:00:00 10.1 0 Calma 3 Sudoeste 0 -- -- 76
2019-06-08 05:00:00 10.6 3 Sudoeste 5 Oeste 0 -- -- 74
2019-06-08 04:00:00 10.9 4 Oeste 8 Oeste 0 -- -- 72
2019-06-08 03:00:00 11.9 6 Oeste 8 Oeste 0 -- -- 67
2019-06-08 02:00:00 13.6 4 Oeste 20 Noroeste 0 -- -- 60
2019-06-08 01:00:00 15 12 Noroeste 23 Norte 0 -- -- 55
2019-06-08 00:00:00 16.2 12 Noroeste 24 Norte 0 -- -- 49
2019-06-07 23:00:00 17.2 10 Noroeste 19 Noroeste 0 -- -- 43
2019-06-07 22:00:00 19.1 11 Noroeste 19 Noroeste 0 -- -- 36
2019-06-07 21:00:00 22 12 Noroeste 22 Noroeste 0 -- -- 31
2019-06-07 20:00:00 23.1 9 Norte 26 Norte 0 -- -- 29
2019-06-07 19:00:00 23.5 11 Norte 27 Norte 0 -- -- 28
2019-06-07 18:00:00 23.7 9 Noroeste 24 Noroeste 0 -- -- 28
2019-06-07 17:00:00 23.1 11 Norte 28 Noroeste 0 -- -- 29
2019-06-07 16:00:00 22.1 10 Noroeste 29 Norte 0 -- -- 32
2019-06-07 15:00:00 21.7 13 Norte 30 Oeste 0 -- -- 33
2019-06-07 14:00:00 20.8 13 Norte 35 Norte 0 -- -- 35
2019-06-07 13:00:00 19.5 12 Noroeste 26 Norte 0 -- -- 40
2019-06-07 12:00:00 17.3 14 Noroeste 25 Noroeste 0 -- -- 49
2019-06-07 11:00:00 16.3 10 Noroeste 22 Noroeste 0 -- -- 59
2019-06-07 10:00:00 14.2 9 Oeste 19 Oeste 0 -- -- 80
2019-06-07 09:00:00 12.3 9 Oeste 15 Oeste 0 -- -- 87
2019-06-07 08:00:00 10.8 6 Oeste 9 Oeste 0 -- -- 95
2019-06-07 07:00:00 10.2 7 Sudoeste 10 Sudoeste 0 -- -- 95
2019-06-07 06:00:00 10.4 5 Sudoeste 10 Oeste 0 -- -- 94
2019-06-07 05:00:00 11.1 4 Oeste 14 Oeste 0 -- -- 92
2019-06-07 04:00:00 11.8 4 Oeste 14 Noroeste 0 -- -- 92
2019-06-07 03:00:00 12.5 11 Noroeste 18 Noroeste 0 -- -- 91
2019-06-07 02:00:00 12.8 9 Sudoeste 14 Oeste 0 -- -- 93
2019-06-07 01:00:00 12.6 9 Oeste 31 Noroeste 0.4 -- -- 93
2019-06-07 00:00:00 13.1 21 Noroeste 50 Sudoeste 0.8 -- -- 91
2019-06-06 23:00:00 17.6 29 Sudoeste 48 Sudoeste 0 -- -- 65
2019-06-06 22:00:00 18.4 31 Sudoeste 49 Sudoeste 0 -- -- 60
2019-06-06 21:00:00 19.3 33 Sudoeste 51 Sudoeste 0 -- -- 55
2019-06-06 20:00:00 21.3 32 Sudoeste 51 Sudoeste 0 -- -- 46
2019-06-06 19:00:00 23 30 Sudoeste 48 Sudoeste 0 -- -- 39
2019-06-06 18:00:00 23.8 27 Oeste 49 Oeste 0 -- -- 36
2019-06-06 17:00:00 23.2 28 Sudoeste 45 Sudoeste 0 -- -- 37
2019-06-06 16:00:00 23.2 21 Sudoeste 37 Sudoeste 0 -- -- 34
2019-06-06 15:00:00 22.3 22 Sudoeste 39 Sudoeste 0 -- -- 37
2019-06-06 14:00:00 21.3 15 Sudoeste 33 Sudoeste 0 -- -- 38
2019-06-06 13:00:00 20.2 15 Sudoeste 26 Sudoeste 0 -- -- 41
2019-06-06 12:00:00 18.8 8 Sudoeste 20 Noroeste 0 -- -- 45
2019-06-06 11:00:00 17.1 7 Oeste 17 Oeste 0 -- -- 51
2019-06-06 10:00:00 14.8 6 Oeste 13 Oeste 0 -- -- 64
2019-06-06 09:00:00 12.5 7 Sudoeste 10 Sudoeste 0 -- -- 73
2019-06-06 08:00:00 9.4 5 Sur 12 Sudeste 0 -- -- 81
2019-06-06 07:00:00 9.1 5 Sur 6 Sur 0 -- -- 80
2019-06-06 06:00:00 9.4 4 Sur 5 Sur 0 -- -- 77
2019-06-06 05:00:00 9.7 3 Sudoeste 13 Noroeste 0 -- -- 73
2019-06-06 04:00:00 10.2 8 Noroeste 13 Noroeste 0 -- -- 69
2019-06-06 03:00:00 11.2 6 Oeste 17 Noroeste 0 -- -- 64
2019-06-06 02:00:00 12.3 11 Oeste 23 Noroeste 0 -- -- 58
2019-06-06 01:00:00 13.4 12 Noroeste 21 Noroeste 0 -- -- 54
2019-06-06 00:00:00 14.3 12 Noroeste 22 Noroeste 0 -- -- 50
2019-06-05 23:00:00 15.7 12 Noroeste 28 Noroeste 0 -- -- 44
2019-06-05 22:00:00 17.5 12 Noroeste 26 Noroeste 0 -- -- 39
2019-06-05 21:00:00 20.4 15 Noroeste 31 Noroeste 0 -- -- 31
2019-06-05 20:00:00 22.1 17 Noroeste 30 Noroeste 0 -- -- 29
2019-06-05 19:00:00 23 16 Noroeste 34 Oeste 0 -- -- 29
2019-06-05 18:00:00 22.2 15 Oeste 33 Noroeste 0 -- -- 32
2019-06-05 17:00:00 23.1 18 Noroeste 36 Noroeste 0 -- -- 32
2019-06-05 16:00:00 21.8 17 Noroeste 32 Norte 0 -- -- 34
2019-06-05 15:00:00 22.4 18 Noroeste 38 Noroeste 0 -- -- 32
2019-06-05 14:00:00 20.8 21 Noroeste 42 Oeste 0 -- -- 37
2019-06-05 13:00:00 19.6 17 Noroeste 37 Oeste 0 -- -- 43
2019-06-05 12:00:00 19.5 15 Noroeste 32 Noroeste 0 -- -- 44
2019-06-05 11:00:00 17.8 15 Noroeste 31 Noroeste 0 -- -- 52
2019-06-05 10:00:00 15.8 15 Oeste 27 Oeste 0 -- -- 61
2019-06-05 09:00:00 13.7 12 Oeste 21 Oeste 0 -- -- 75
2019-06-05 08:00:00 11.2 7 Oeste 15 Noroeste 0 -- -- 88
2019-06-05 07:00:00 10.7 10 Noroeste 18 Oeste 0 -- -- 91
2019-06-05 06:00:00 10.9 11 Oeste 21 Noroeste 0 -- -- 89
2019-06-05 05:00:00 10.8 9 Oeste 17 Oeste 0 -- -- 85
2019-06-05 04:00:00 11.8 12 Oeste 23 Oeste 0 -- -- 80
2019-06-05 03:00:00 12.4 10 Oeste 22 Oeste 0 -- -- 75
2019-06-05 02:00:00 13 11 Oeste 26 Oeste 0 -- -- 72
2019-06-05 01:00:00 13.8 13 Oeste 30 Noroeste 0 -- -- 66
2019-06-05 00:00:00 15.1 17 Noroeste 39 Noroeste 0 -- -- 58
2019-06-04 23:00:00 16.3 19 Noroeste 39 Noroeste 0 -- -- 51
2019-06-04 22:00:00 18.8 19 Noroeste 35 Oeste 0 -- -- 51
2019-06-04 21:00:00 19.9 17 Noroeste 34 Noroeste 0 -- -- 56
2019-06-04 20:00:00 19.9 18 Noroeste 36 Noroeste 0 -- -- 63
2019-06-04 19:00:00 20.6 22 Oeste 49 Noroeste 0 -- -- 60
2019-06-04 18:00:00 22.5 31 Noroeste 49 Oeste 0 -- -- 58
2019-06-04 17:00:00 26 17 Oeste 37 Oeste 0 -- -- 39
2019-06-04 16:00:00 26 17 Oeste 32 Oeste 0 -- -- 42
2019-06-04 15:00:00 24.7 16 Oeste 36 Sudoeste 0 -- -- 47
2019-06-04 14:00:00 23.7 16 Oeste 31 Oeste 0 -- -- 51
2019-06-04 13:00:00 21.8 14 Oeste 26 Oeste 0 -- -- 57
2019-06-04 12:00:00 21.3 14 Oeste 26 Oeste 0 -- -- 58
2019-06-04 11:00:00 20.7 10 Oeste 27 Oeste 0 -- -- 59
2019-06-04 10:00:00 18.8 11 Oeste 20 Oeste 0 -- -- 65
2019-06-04 09:00:00 17.4 9 Oeste 14 Oeste 0 -- -- 74
2019-06-04 08:00:00 15.3 5 Oeste 16 Oeste 0 -- -- 86
2019-06-04 07:00:00 15.1 9 Oeste 18 Oeste 0 -- -- 89
2019-06-04 06:00:00 14.5 7 Oeste 12 Oeste 0 -- -- 90
2019-06-04 05:00:00 15.2 7 Oeste 19 Noroeste 0 -- -- 87
2019-06-04 04:00:00 16.1 9 Oeste 15 Oeste 0 -- -- 86
2019-06-04 03:00:00 17.2 9 Oeste 18 Oeste 0 -- -- 81
2019-06-04 02:00:00 18.5 9 Oeste 26 Oeste 0 -- -- 74
2019-06-04 01:00:00 20.2 17 Oeste 29 Oeste 0 -- -- 68
2019-06-04 00:00:00 22.1 12 Noroeste 31 Noroeste 0 -- -- 63
2019-06-03 23:00:00 24.3 16 Oeste 30 Oeste 0 -- -- 56
2019-06-03 22:00:00 26.7 15 Oeste 32 Oeste 0 -- -- 41
2019-06-03 21:00:00 29.6 23 Oeste 38 Oeste 0 -- -- 30
2019-06-03 20:00:00 31.6 24 Oeste 39 Sudoeste 0 -- -- 22
2019-06-03 19:00:00 33.3 22 Oeste 42 Oeste 0 -- -- 19
2019-06-03 18:00:00 34 19 Sudoeste 39 Oeste 0 -- -- 18
2019-06-03 17:00:00 34.1 22 Sudoeste 37 Oeste 0 -- -- 16
2019-06-03 16:00:00 33.9 19 Sudoeste 33 Oeste 0 -- -- 17
2019-06-03 15:00:00 33.7 19 Oeste 34 Oeste 0 -- -- 16
2019-06-03 14:00:00 32.4 13 Sudoeste 32 Sudoeste 0 -- -- 18
2019-06-03 13:00:00 31.1 13 Oeste 22 Oeste 0 -- -- 17
2019-06-03 12:00:00 28.5 11 Sudoeste 18 Sudoeste 0 -- -- 20
2019-06-03 11:00:00 26.1 9 Sudoeste 15 Oeste 0 -- -- 29
2019-06-03 10:00:00 23.4 10 Oeste 17 Sudoeste 0 -- -- 34
2019-06-03 09:00:00 20.7 9 Sudoeste 14 Sudoeste 0 -- -- 44
2019-06-03 08:00:00 17.8 8 Sudoeste 11 Sudoeste 0 -- -- 52
2019-06-03 07:00:00 17.4 8 Sudoeste 10 Sudoeste 0 -- -- 52
2019-06-03 06:00:00 17 6 Oeste 13 Oeste 0 -- -- 54
2019-06-03 05:00:00 18.2 7 Oeste 13 Oeste 0 -- -- 52
2019-06-03 04:00:00 19.1 8 Oeste 13 Noroeste 0 -- -- 50
2019-06-03 03:00:00 20.4 7 Oeste 14 Oeste 0 -- -- 45
2019-06-03 02:00:00 22.1 10 Sudoeste 15 Sudoeste 0 -- -- 41
2019-06-03 01:00:00 23.3 6 Oeste 12 Oeste 0 -- -- 36
2019-06-03 00:00:00 25 6 Oeste 26 Noroeste 0 -- -- 29
2019-06-02 23:00:00 26.5 10 Noroeste 28 Noroeste 0 -- -- 25
2019-06-02 22:00:00 28.6 18 Noroeste 32 Noroeste 0 -- -- 28
2019-06-02 21:00:00 30.8 22 Noroeste 39 Noroeste 0 -- -- 20
2019-06-02 20:00:00 33.7 22 Noroeste 39 Noroeste 0 -- -- 18
2019-06-02 19:00:00 37 14 Noroeste 28 Noroeste 0 -- -- 16
2019-06-02 18:00:00 36.8 20 Sudoeste 32 Oeste 0 -- -- 16
2019-06-02 17:00:00 36.6 14 Sudoeste 27 Sudoeste 0 -- -- 16
2019-06-02 16:00:00 36.1 8 Nordeste 32 Norte 0 -- -- 17
2019-06-02 15:00:00 35.3 11 Norte 22 Norte 0 -- -- 19
2019-06-02 14:00:00 33.6 5 Oeste 13 Sudoeste 0 -- -- 22
2019-06-02 13:00:00 31.4 8 Sudoeste 14 Sur 0 -- -- 25
2019-06-02 12:00:00 29.3 9 Oeste 17 Sudoeste 0 -- -- 29
2019-06-02 11:00:00 27 11 Sudoeste 21 Sudoeste 0 -- -- 33
2019-06-02 10:00:00 24.1 16 Sudoeste 29 Sudoeste 0 -- -- 36
2019-06-02 09:00:00 21.8 22 Sudoeste 33 Sudoeste 0 -- -- 39
2019-06-02 08:00:00 20.5 21 Sudoeste 40 Sudoeste 0 -- -- 41
2019-06-02 07:00:00 20.6 23 Sudoeste 37 Sur 0 -- -- 41
2019-06-02 06:00:00 20.9 21 Sur 33 Sur 0 -- -- 40
2019-06-02 05:00:00 21.6 16 Sudoeste 26 Sudoeste 0 -- -- 40
2019-06-02 04:00:00 21.6 14 Sudoeste 21 Sudoeste 0 -- -- 41
2019-06-02 03:00:00 23.3 13 Sudoeste 21 Sudoeste 0 -- -- 37
2019-06-02 02:00:00 24.3 10 Sudoeste 28 Sudoeste 0 -- -- 34
2019-06-02 01:00:00 26.1 21 Sudoeste 35 Sudoeste 0 -- -- 31
2019-06-02 00:00:00 27.7 21 Sudoeste 37 Sur 0 -- -- 26
2019-06-01 23:00:00 27.9 4 Nordeste 9 Norte 0 -- -- 22
2019-06-01 22:00:00 29.4 9 Norte 17 Norte 0 -- -- 21
2019-06-01 21:00:00 33.1 15 Norte 25 Norte 0 -- -- 18
2019-06-01 20:00:00 34.5 19 Norte 31 Norte 0 -- -- 18
2019-06-01 19:00:00 35.3 21 Norte 33 Norte 0 -- -- 18
2019-06-01 18:00:00 36.3 14 Norte 29 Nordeste 0 -- -- 16
2019-06-01 17:00:00 36.1 11 Nordeste 27 Nordeste 0 -- -- 17
2019-06-01 16:00:00 35.8 11 Nordeste 28 Este 0 -- -- 17
2019-06-01 15:00:00 34.6 8 Norte 26 Este 0 -- -- 18
2019-06-01 14:00:00 33.6 11 Nordeste 23 Este 0 -- -- 20
2019-06-01 13:00:00 32.5 8 Nordeste 19 Nordeste 0 -- -- 22
2019-06-01 12:00:00 29.9 9 Nordeste 15 Nordeste 0 -- -- 25
2019-06-01 11:00:00 27.9 5 Este 9 Nordeste 0 -- -- 27
2019-06-01 10:00:00 25.2 5 Nordeste 10 Nordeste 0 -- -- 32
2019-06-01 09:00:00 22.4 7 Nordeste 10 Nordeste 0 -- -- 38
2019-06-01 08:00:00 18.7 3 Sur 7 Sudoeste 0 -- -- 46
2019-06-01 07:00:00 18.5 7 Sudoeste 18 Sudoeste 0 -- -- 45
2019-06-01 06:00:00 20.4 9 Sudoeste 27 Sudoeste 0 -- -- 40
2019-06-01 05:00:00 21.3 19 Sudoeste 35 Sur 0 -- -- 37
2019-06-01 04:00:00 22.4 21 Sudoeste 39 Sur 0 -- -- 34
2019-06-01 03:00:00 23.5 18 Sur 35 Sudoeste 0 -- -- 32
2019-06-01 02:00:00 25.5 24 Sudoeste 33 Sudoeste 0 -- -- 29
2019-06-01 01:00:00 26.5 20 Sudoeste 30 Sudoeste 0 -- -- 26
2019-06-01 00:00:00 27.7 5 Norte 8 Norte 0 -- -- 22
2019-05-31 23:00:00 28.4 3 Este 12 Este 0 -- -- 21
2019-05-31 22:00:00 29.4 11 Este 12 Este 0 -- -- 20
2019-05-31 21:00:00 32.9 12 Este 29 Nordeste 0 -- -- 16
2019-05-31 20:00:00 34.2 18 Nordeste 34 Nordeste 0 -- -- 14
2019-05-31 19:00:00 34.9 20 Nordeste 33 Nordeste 0 -- -- 16
2019-05-31 18:00:00 35.4 18 Nordeste 37 Nordeste 0 -- -- 16
2019-05-31 17:00:00 35.1 16 Nordeste 32 Nordeste 0 -- -- 16
2019-05-31 16:00:00 34.6 14 Este 38 Este 0 -- -- 19
2019-05-31 15:00:00 33.8 19 Nordeste 33 Este 0 -- -- 20
2019-05-31 14:00:00 32.7 13 Nordeste 28 Este 0 -- -- 24
2019-05-31 13:00:00 31.6 14 Este 24 Este 0 -- -- 25
2019-05-31 12:00:00 29 16 Nordeste 24 Nordeste 0 -- -- 29
2019-05-31 11:00:00 26.5 16 Nordeste 22 Nordeste 0 -- -- 35
2019-05-31 10:00:00 23.8 15 Este 22 Este 0 -- -- 44
2019-05-31 09:00:00 20.9 11 Este 14 Este 0 -- -- 52
2019-05-31 08:00:00 17.5 3 Este 12 Sudeste 0 -- -- 61
2019-05-31 07:00:00 17.1 4 Sur 15 Sudoeste 0 -- -- 61
2019-05-31 06:00:00 17.9 12 Sudoeste 23 Sudoeste 0 -- -- 60
2019-05-31 05:00:00 18.9 14 Sudoeste 27 Sudoeste 0 -- -- 56
2019-05-31 04:00:00 20.3 17 Sudoeste 29 Sudoeste 0 -- -- 51
2019-05-31 03:00:00 21.5 18 Sudoeste 29 Sudoeste 0 -- -- 45
2019-05-31 02:00:00 23.5 17 Sudoeste 26 Sudoeste 0 -- -- 40
2019-05-31 01:00:00 23.2 4 Noroeste 19 Oeste 0 -- -- 30
2019-05-31 00:00:00 26.4 9 Sudeste 15 Sudeste 0 -- -- 20
2019-05-30 23:00:00 27.3 11 Este 17 Este 0 -- -- 19
2019-05-30 22:00:00 28.1 14 Este 20 Este 0 -- -- 17
2019-05-30 21:00:00 31.9 14 Este 37 Este 0 -- -- 15
2019-05-30 20:00:00 33.4 20 Este 32 Este 0 -- -- 14
2019-05-30 19:00:00 33.9 23 Nordeste 32 Nordeste 0 -- -- 14
2019-05-30 18:00:00 33.9 21 Nordeste 35 Nordeste 0 -- -- 15
2019-05-30 17:00:00 34.2 21 Nordeste 38 Nordeste 0 -- -- 15
2019-05-30 16:00:00 33.5 22 Nordeste 40 Nordeste 0 -- -- 17
2019-05-30 15:00:00 33 18 Nordeste 40 Este 0 -- -- 18
2019-05-30 14:00:00 32.1 23 Nordeste 49 Nordeste 0 -- -- 18
2019-05-30 13:00:00 31.1 22 Este 38 Este 0 -- -- 18
2019-05-30 12:00:00 30 23 Este 39 Este 0 -- -- 19
2019-05-30 11:00:00 27.4 21 Nordeste 35 Este 0 -- -- 25
2019-05-30 10:00:00 24.4 22 Nordeste 31 Nordeste 0 -- -- 30
2019-05-30 09:00:00 20.4 19 Nordeste 24 Nordeste 0 -- -- 38
2019-05-30 08:00:00 16.8 12 Nordeste 17 Este 0 -- -- 42
2019-05-30 07:00:00 14.8 15 Nordeste 18 Nordeste 0 -- -- 46
2019-05-30 06:00:00 14.7 15 Nordeste 18 Nordeste 0 -- -- 50
2019-05-30 05:00:00 16 12 Nordeste 20 Nordeste 0 -- -- 49
2019-05-30 04:00:00 16.6 19 Nordeste 20 Nordeste 0 -- -- 46
2019-05-30 03:00:00 17.4 17 Nordeste 18 Nordeste 0 -- -- 43
2019-05-30 02:00:00 19.6 13 Este 17 Nordeste 0 -- -- 37
2019-05-30 01:00:00 20.9 14 Nordeste 20 Nordeste 0 -- -- 35
2019-05-30 00:00:00 22.5 16 Nordeste 21 Nordeste 0 -- -- 32
2019-05-29 23:00:00 22.6 14 Nordeste 18 Nordeste 0 -- -- 32
2019-05-29 22:00:00 25.6 12 Nordeste 17 Este 0 -- -- 27
2019-05-29 21:00:00 30.3 13 Este 31 Este 0 -- -- 21
2019-05-29 20:00:00 31.7 17 Este 31 Este 0 -- -- 20
2019-05-29 19:00:00 32.2 21 Este 41 Este 0 -- -- 18
2019-05-29 18:00:00 31.6 26 Nordeste 42 Este 0 -- -- 20
2019-05-29 17:00:00 31.6 21 Nordeste 43 Nordeste 0 -- -- 20
2019-05-29 16:00:00 31 24 Nordeste 43 Nordeste 0 -- -- 21
2019-05-29 15:00:00 30.3 26 Nordeste 40 Este 0 -- -- 22
2019-05-29 14:00:00 29.2 26 Nordeste 43 Nordeste 0 -- -- 23
2019-05-29 13:00:00 28.1 23 Nordeste 44 Este 0 -- -- 25
2019-05-29 12:00:00 27.3 27 Este 42 Este 0 -- -- 25
2019-05-29 11:00:00 25.1 32 Nordeste 43 Nordeste 0 -- -- 28
2019-05-29 10:00:00 23.4 28 Este 40 Nordeste 0 -- -- 30
2019-05-29 09:00:00 20.3 18 Nordeste 27 Nordeste 0 -- -- 35
2019-05-29 08:00:00 16 17 Nordeste 21 Nordeste 0 -- -- 45
2019-05-29 07:00:00 14.8 18 Nordeste 24 Nordeste 0 -- -- 47
2019-05-29 06:00:00 16.8 22 Nordeste 28 Nordeste 0 -- -- 42
2019-05-29 05:00:00 17.1 22 Nordeste 26 Nordeste 0 -- -- 40
2019-05-29 04:00:00 17.6 22 Nordeste 26 Nordeste 0 -- -- 39
2019-05-29 03:00:00 19 15 Nordeste 24 Norte 0 -- -- 36
2019-05-29 02:00:00 21.7 17 Norte 24 Norte 0 -- -- 31
2019-05-29 01:00:00 22.4 20 Norte 24 Norte 0 -- -- 30
2019-05-29 00:00:00 22.4 14 Nordeste 25 Norte 0 -- -- 29
2019-05-28 23:00:00 24.9 18 Norte 24 Norte 0 -- -- 24
2019-05-28 22:00:00 25.2 14 Nordeste 24 Nordeste 0 -- -- 22
2019-05-28 21:00:00 29.7 19 Norte 32 Nordeste 0 -- -- 17
2019-05-28 20:00:00 31.5 22 Norte 35 Norte 0 -- -- 15
2019-05-28 19:00:00 32.5 24 Norte 37 Nordeste 0 -- -- 19
2019-05-28 18:00:00 33.1 24 Norte 41 Norte 0 -- -- 19
2019-05-28 17:00:00 33.6 22 Norte 40 Norte 0 -- -- 22
2019-05-28 16:00:00 33.2 11 Nordeste 39 Norte 0 -- -- 25
2019-05-28 15:00:00 32.4 15 Nordeste 32 Nordeste 0 -- -- 27
2019-05-28 14:00:00 30.5 19 Nordeste 29 Nordeste 0 -- -- 30
2019-05-28 13:00:00 28.7 12 Nordeste 24 Norte 0 -- -- 34
2019-05-28 12:00:00 26.1 12 Nordeste 20 Nordeste 0 -- -- 40
2019-05-28 11:00:00 23.6 10 Nordeste 18 Norte 0 -- -- 47
2019-05-28 10:00:00 19.4 5 Noroeste 10 Noroeste 0 -- -- 63
2019-05-28 09:00:00 15.9 7 Sudoeste 12 Sudoeste 0 -- -- 78
2019-05-28 08:00:00 13.7 9 Sudoeste 13 Sudoeste 0 -- -- 87
2019-05-28 07:00:00 13.6 9 Sudoeste 13 Sudoeste 0 -- -- 87
2019-05-28 06:00:00 14.1 10 Sudoeste 13 Sudoeste 0 -- -- 85
2019-05-28 05:00:00 14.3 9 Oeste 14 Oeste 0 -- -- 84
2019-05-28 04:00:00 15.2 11 Oeste 15 Oeste 0 -- -- 81
2019-05-28 03:00:00 16 10 Oeste 18 Oeste 0 -- -- 79
2019-05-28 02:00:00 17 10 Oeste 22 Sudoeste 0 -- -- 75
2019-05-28 01:00:00 18 14 Oeste 20 Oeste 0 -- -- 71
2019-05-28 00:00:00 19.2 14 Oeste 29 Oeste 0 -- -- 66
2019-05-27 23:00:00 21 15 Oeste 29 Noroeste 0 -- -- 61
2019-05-27 22:00:00 23.2 17 Noroeste 29 Noroeste 0 -- -- 52
2019-05-27 21:00:00 27 18 Noroeste 37 Noroeste 0 -- -- 39
2019-05-27 20:00:00 29.5 21 Noroeste 37 Noroeste 0 -- -- 31
2019-05-27 19:00:00 31.8 22 Noroeste 39 Noroeste 0 -- -- 28
2019-05-27 18:00:00 32.7 20 Noroeste 38 Noroeste 0 -- -- 29
2019-05-27 17:00:00 33.9 16 Noroeste 33 Oeste 0 -- -- 25
2019-05-27 16:00:00 33.9 14 Noroeste 25 Noroeste 0 -- -- 24
2019-05-27 15:00:00 32.8 12 Noroeste 28 Noroeste 0 -- -- 22
2019-05-27 14:00:00 31.7 14 Noroeste 29 Noroeste 0 -- -- 24
2019-05-27 13:00:00 30.4 10 Noroeste 18 Noroeste 0 -- -- 31
2019-05-27 12:00:00 28.5 8 Noroeste 15 Norte 0 -- -- 35
2019-05-27 11:00:00 25.5 4 Norte 12 Noroeste 0 -- -- 43
2019-05-27 10:00:00 21.6 6 Oeste 10 Oeste 0 -- -- 57
2019-05-27 09:00:00 18 8 Sudoeste 11 Oeste 0 -- -- 69
2019-05-27 08:00:00 15.5 5 Oeste 12 Oeste 0 -- -- 77
2019-05-27 07:00:00 15.7 8 Sudoeste 10 Oeste 0 -- -- 74
2019-05-27 06:00:00 16.6 5 Oeste 8 Oeste 0 -- -- 70
2019-05-27 05:00:00 17 7 Sur 10 Sur 0 -- -- 70
2019-05-27 04:00:00 18.4 5 Oeste 10 Sur 0 -- -- 65
2019-05-27 03:00:00 19.8 4 Oeste 9 Sur 0 -- -- 60
2019-05-27 02:00:00 20.6 3 Oeste 8 Noroeste 0 -- -- 57
2019-05-27 01:00:00 21 4 Sudoeste 13 Noroeste 0 -- -- 56
2019-05-27 00:00:00 23.2 10 Noroeste 15 Noroeste 0 -- -- 45
2019-05-26 23:00:00 24.5 10 Nordeste 24 Norte 0 -- -- 30
2019-05-26 22:00:00 27.1 17 Norte 27 Nordeste 0 -- -- 25
2019-05-26 21:00:00 29.9 21 Norte 37 Nordeste 0 -- -- 21
2019-05-26 20:00:00 31.5 23 Norte 37 Norte 0 -- -- 19
2019-05-26 19:00:00 32.2 26 Nordeste 45 Norte 0 -- -- 19
2019-05-26 18:00:00 32.3 24 Nordeste 44 Norte 0 -- -- 19
2019-05-26 17:00:00 32.2 22 Norte 37 Nordeste 0 -- -- 23
2019-05-26 16:00:00 31.2 17 Norte 39 Nordeste 0 -- -- 24
2019-05-26 15:00:00 30.3 14 Norte 33 Norte 0 -- -- 25
2019-05-26 14:00:00 28.8 21 Norte 36 Norte 0 -- -- 26
2019-05-26 13:00:00 28.2 17 Nordeste 30 Nordeste 0 -- -- 27
2019-05-26 12:00:00 26.7 12 Nordeste 27 Norte 0 -- -- 27
2019-05-26 11:00:00 24.8 13 Nordeste 22 Nordeste 0 -- -- 31
2019-05-26 10:00:00 22.1 18 Nordeste 26 Nordeste 0 -- -- 36
2019-05-26 09:00:00 19.8 15 Nordeste 21 Nordeste 0 -- -- 39
2019-05-26 08:00:00 15.3 14 Nordeste 15 Nordeste 0 -- -- 51
2019-05-26 07:00:00 14 9 Nordeste 15 Nordeste 0 -- -- 52
2019-05-26 06:00:00 14.1 12 Nordeste 17 Nordeste 0 -- -- 51
2019-05-26 05:00:00 15.3 12 Nordeste 15 Nordeste 0 -- -- 48
2019-05-26 04:00:00 16.8 12 Nordeste 15 Nordeste 0 -- -- 43
2019-05-26 03:00:00 17.1 11 Nordeste 19 Norte 0 -- -- 42
2019-05-26 02:00:00 18.8 10 Norte 15 Norte 0 -- -- 37
2019-05-26 01:00:00 20.4 13 Norte 18 Norte 0 -- -- 33
2019-05-26 00:00:00 20.4 12 Norte 16 Nordeste 0 -- -- 31